Time;durP1;ratioP1;P1;durP2;ratioP2;P2;SDS_P1;SDS_P2;PMS_P1;PMS_P2;Temp;Humidity;BMP_temperature;BMP_pressure;BME280_temperature;BME280_humidity;BME280_pressure;Samples;Min_cycle;Max_cycle;Signal;HPM_P1;HPM_P2
2022/09/21 04:01:55;;;;;;;9.10;8.30;;;7.50;99.90;;;;;;5298493;23;20874;-64
2022/09/21 04:04:21;;;;;;;9.30;8.50;;;7.50;99.90;;;;;;4974914;28;20869;-65
2022/09/21 04:06:48;;;;;;;7.90;7.40;;;7.50;99.90;;;;;;4974938;28;20466;-65
2022/09/21 04:09:15;;;;;;;8.10;7.40;;;7.50;99.90;;;;;;4974895;28;20450;-65
2022/09/21 04:11:41;;;;;;;9.77;8.70;;;7.40;99.90;;;;;;4976179;28;20480;-64
2022/09/21 04:14:08;;;;;;;8.50;7.60;;;7.40;99.90;;;;;;4978370;28;20458;-65
2022/09/21 04:16:34;;;;;;;9.00;8.10;;;7.40;99.90;;;;;;4978459;28;20509;-65
2022/09/21 04:19:02;;;;;;;9.20;8.30;;;7.40;99.90;;;;;;4979172;28;20458;-65
2022/09/21 04:21:29;;;;;;;8.70;8.00;;;7.30;99.90;;;;;;4978119;28;20506;-66
2022/09/21 04:23:56;;;;;;;9.80;8.90;;;7.30;99.90;;;;;;4978135;28;20550;-66
2022/09/21 04:26:26;;;;;;;9.20;8.50;;;7.30;99.90;;;;;;4978447;28;20465;-64
2022/09/21 04:28:54;;;;;;;9.43;8.57;;;7.30;99.90;;;;;;4979740;28;20881;-65
2022/09/21 04:31:21;;;;;;;8.60;7.90;;;7.30;99.90;;;;;;4980531;28;20477;-65
2022/09/21 04:33:49;;;;;;;8.50;7.80;;;7.30;99.90;;;;;;4980394;28;20505;-65
2022/09/21 04:36:17;;;;;;;9.97;9.10;;;7.30;99.90;;;;;;4979691;28;20545;-65
2022/09/21 04:38:44;;;;;;;8.73;7.77;;;7.30;99.90;;;;;;4979557;28;20466;-66
2022/09/21 04:41:11;;;;;;;9.17;8.47;;;7.30;99.90;;;;;;4978074;28;20486;-66
2022/09/21 04:43:38;;;;;;;9.50;7.90;;;7.30;99.90;;;;;;4978006;28;20454;-66
2022/09/21 04:46:06;;;;;;;9.17;8.27;;;7.30;99.90;;;;;;4977705;28;20942;-65
2022/09/21 04:48:33;;;;;;;10.37;9.37;;;7.30;99.90;;;;;;4977858;28;20458;-67
2022/09/21 04:51:00;;;;;;;10.10;9.20;;;7.20;99.90;;;;;;4977652;28;20474;-65
2022/09/21 04:53:28;;;;;;;9.73;8.63;;;7.20;99.90;;;;;;4978081;28;20454;-64
2022/09/21 04:55:55;;;;;;;10.20;8.83;;;7.20;99.90;;;;;;4977977;28;20458;-65
2022/09/21 04:58:21;;;;;;;9.80;9.10;;;7.20;99.90;;;;;;4978024;28;20546;-65
2022/09/21 05:00:49;;;;;;;13.30;9.70;;;7.20;99.90;;;;;;4977282;28;20622;-65
2022/09/21 05:03:16;;;;;;;11.90;10.73;;;7.10;99.90;;;;;;4977290;28;20945;-65
2022/09/21 05:05:46;;;;;;;9.80;8.90;;;7.00;99.90;;;;;;4977751;28;20459;-65
2022/09/21 05:08:13;;;;;;;11.13;10.03;;;7.00;99.90;;;;;;4977695;28;20447;-65
2022/09/21 05:10:40;;;;;;;10.13;9.20;;;7.00;99.90;;;;;;4978769;28;20470;-68
2022/09/21 05:13:07;;;;;;;11.73;9.20;;;7.00;99.90;;;;;;4979519;28;20521;-66
2022/09/21 05:15:34;;;;;;;10.70;9.03;;;7.00;99.90;;;;;;4979214;28;20458;-66
2022/09/21 05:18:00;;;;;;;10.57;9.60;;;7.00;99.90;;;;;;4979002;28;20459;-67
2022/09/21 05:20:27;;;;;;;11.80;8.43;;;7.00;99.90;;;;;;4978579;28;20479;-65
2022/09/21 05:22:54;;;;;;;9.43;8.73;;;7.10;99.90;;;;;;4976860;28;20934;-66
2022/09/21 05:25:20;;;;;;;9.10;8.40;;;7.10;99.90;;;;;;4977203;28;20911;-66
2022/09/21 05:27:48;;;;;;;11.50;9.10;;;7.10;99.90;;;;;;4977696;28;20451;-66
2022/09/21 05:30:15;;;;;;;9.67;8.57;;;7.10;99.90;;;;;;4977208;28;20513;-65
2022/09/21 05:32:47;;;;;;;9.90;8.93;;;7.20;99.90;;;;;;4977549;28;20525;-65
2022/09/21 05:35:24;;;;;;;9.80;8.83;;;7.20;99.90;;;;;;4977566;28;20962;-66
2022/09/21 05:37:57;;;;;;;10.00;9.17;;;7.30;99.90;;;;;;4977975;28;20501;-66
2022/09/21 05:40:24;;;;;;;9.50;8.60;;;7.30;99.90;;;;;;4977407;28;20873;-65
2022/09/21 05:42:53;;;;;;;9.47;8.77;;;7.30;99.90;;;;;;4977103;28;20510;-65
2022/09/21 05:45:21;;;;;;;10.57;9.03;;;7.40;99.90;;;;;;4977191;28;20455;-65
2022/09/21 05:47:56;;;;;;;9.87;8.90;;;7.40;99.90;;;;;;4977344;28;20490;-65
2022/09/21 05:50:35;;;;;;;9.20;8.40;;;7.50;99.90;;;;;;4977028;28;20439;-63
2022/09/21 05:53:19;;;;;;;9.27;8.60;;;7.50;99.90;;;;;;4977262;28;20853;-65
2022/09/21 05:55:55;;;;;;;9.20;8.50;;;7.60;99.90;;;;;;4977488;28;20447;-65
2022/09/21 05:58:31;;;;;;;9.40;8.50;;;7.70;99.90;;;;;;4977011;28;20443;-65
2022/09/21 06:01:11;;;;;;;8.50;7.80;;;7.70;99.90;;;;;;4976327;28;20521;-65
2022/09/21 06:03:39;;;;;;;9.40;8.60;;;7.80;99.90;;;;;;4977089;28;20447;-68
2022/09/21 06:06:08;;;;;;;10.83;9.07;;;7.90;99.90;;;;;;4976838;28;20554;-65
2022/09/21 06:08:34;;;;;;;8.87;7.93;;;7.90;99.90;;;;;;4976751;28;20465;-65
2022/09/21 06:11:02;;;;;;;8.70;8.00;;;8.00;99.90;;;;;;4976537;28;20478;-64
2022/09/21 06:13:30;;;;;;;10.47;8.80;;;8.10;99.90;;;;;;4976340;28;20529;-65
2022/09/21 06:15:57;;;;;;;7.03;6.53;;;8.30;99.90;;;;;;4976455;28;20938;-64
2022/09/21 06:18:24;;;;;;;7.40;6.80;;;8.80;99.90;;;;;;4976193;28;20461;-64
2022/09/21 06:20:50;;;;;;;6.83;6.20;;;9.40;99.90;;;;;;4975935;28;20539;-64
2022/09/21 06:23:17;;;;;;;8.40;5.90;;;10.10;99.90;;;;;;4976182;28;21007;-65
2022/09/21 06:25:44;;;;;;;7.20;6.50;;;11.00;99.90;;;;;;4976287;28;20946;-64
2022/09/21 06:28:12;;;;;;;7.43;6.30;;;11.80;99.90;;;;;;4976080;28;20969;-65
2022/09/21 06:30:41;;;;;;;6.37;5.83;;;12.60;99.90;;;;;;4976096;28;20475;-64
2022/09/21 06:33:08;;;;;;;8.83;6.80;;;13.40;99.90;;;;;;4976137;28;20443;-65
2022/09/21 06:35:36;;;;;;;7.00;6.30;;;14.20;99.90;;;;;;4976900;28;20455;-64
2022/09/21 06:38:06;;;;;;;8.03;6.60;;;14.90;99.90;;;;;;4978528;28;20518;-65
2022/09/21 06:40:34;;;;;;;8.70;7.70;;;15.50;99.90;;;;;;4977224;28;20489;-65
2022/09/21 06:43:02;;;;;;;8.60;6.53;;;16.20;99.90;;;;;;4976226;28;20490;-65
2022/09/21 06:45:30;;;;;;;7.10;6.50;;;16.50;99.90;;;;;;4976665;28;21013;-65
2022/09/21 06:47:59;;;;;;;7.80;6.93;;;16.90;99.90;;;;;;4976374;28;20991;-65
2022/09/21 06:50:25;;;;;;;7.03;6.43;;;17.20;99.90;;;;;;4975835;28;20930;-65
2022/09/21 06:52:52;;;;;;;8.00;6.23;;;17.40;99.90;;;;;;4976023;28;20514;-65
2022/09/21 06:55:19;;;;;;;10.40;7.07;;;17.70;99.90;;;;;;4975919;28;20513;-65
2022/09/21 06:57:46;;;;;;;6.87;6.17;;;18.00;99.90;;;;;;4975995;28;20454;-65
2022/09/21 07:00:14;;;;;;;7.60;6.17;;;18.40;99.90;;;;;;4975551;28;20571;-64
2022/09/21 07:02:43;;;;;;;9.50;5.97;;;18.60;99.90;;;;;;4975594;28;20457;-65
2022/09/21 07:05:11;;;;;;;7.50;6.60;;;19.00;98.70;;;;;;4975609;28;20545;-64
2022/09/21 07:07:39;;;;;;;6.50;6.03;;;18.80;98.50;;;;;;4976126;28;20450;-63
2022/09/21 07:10:06;;;;;;;9.87;6.67;;;19.20;98.50;;;;;;4976101;28;20450;-63
2022/09/21 07:12:34;;;;;;;7.77;6.47;;;19.80;97.20;;;;;;4975903;28;20849;-63
2022/09/21 07:15:00;;;;;;;7.43;6.73;;;19.90;95.50;;;;;;4976251;28;20478;-64
2022/09/21 07:17:31;;;;;;;8.53;7.83;;;20.30;95.00;;;;;;4975986;28;20525;-64
2022/09/21 07:19:58;;;;;;;7.93;7.33;;;20.50;94.10;;;;;;4975983;28;20555;-64
2022/09/21 07:22:27;;;;;;;7.63;6.87;;;20.70;93.10;;;;;;4975766;28;20485;-62
2022/09/21 07:24:54;;;;;;;7.43;6.47;;;21.00;91.80;;;;;;4975511;28;20934;-62
2022/09/21 07:27:20;;;;;;;8.20;6.53;;;21.40;91.40;;;;;;4975858;28;20458;-62
2022/09/21 07:29:47;;;;;;;8.80;7.07;;;21.60;90.80;;;;;;4975746;28;20876;-62
2022/09/21 07:32:14;;;;;;;7.60;7.00;;;21.40;90.30;;;;;;4975705;28;20533;-62
2022/09/21 07:34:41;;;;;;;8.00;7.20;;;21.40;89.00;;;;;;4976660;28;20529;-62
2022/09/21 07:37:07;;;;;;;7.20;6.60;;;21.50;87.20;;;;;;4976751;28;20467;-62
2022/09/21 07:39:37;;;;;;;7.10;6.40;;;21.40;88.50;;;;;;4975904;28;20866;-62
2022/09/21 07:42:04;;;;;;;6.30;5.83;;;21.30;90.00;;;;;;4975469;28;21019;-63
2022/09/21 07:44:31;;;;;;;7.40;6.80;;;21.90;86.50;;;;;;4975555;28;20458;-63
2022/09/21 07:46:57;;;;;;;7.20;6.50;;;22.40;85.20;;;;;;4979238;28;20462;-63
2022/09/21 07:49:24;;;;;;;10.50;7.23;;;22.50;84.20;;;;;;4979566;28;20455;-63
2022/09/21 07:51:51;;;;;;;7.70;6.10;;;22.80;83.60;;;;;;4979584;28;20474;-65
2022/09/21 07:54:17;;;;;;;7.40;6.77;;;22.60;81.70;;;;;;4979073;28;20454;-65
2022/09/21 07:59:04;;;;;;;6.07;5.57;;;22.30;82.90;;;;;;4979306;28;20481;-64
2022/09/21 07:59:31;;;;;;;9.17;6.67;;;22.50;81.40;;;;;;4979161;28;20455;-65
2022/09/21 08:01:59;;;;;;;7.20;6.50;;;22.60;82.00;;;;;;4979149;28;20831;-65
2022/09/21 08:04:25;;;;;;;7.03;6.43;;;22.70;80.90;;;;;;4979572;28;20234;-65
2022/09/21 08:06:52;;;;;;;7.23;6.50;;;22.10;82.20;;;;;;4979395;28;20458;-64
2022/09/21 08:09:19;;;;;;;9.77;6.63;;;22.10;87.40;;;;;;4979443;28;20454;-65
2022/09/21 08:11:47;;;;;;;8.53;6.50;;;22.80;82.40;;;;;;4979110;28;20478;-65
2022/09/21 08:14:18;;;;;;;7.43;5.60;;;22.70;82.90;;;;;;4978860;28;20455;-65
2022/09/21 08:16:45;;;;;;;6.13;5.60;;;23.20;83.30;;;;;;4978870;28;20465;-65
2022/09/21 08:19:12;;;;;;;5.73;5.20;;;23.10;79.70;;;;;;4979194;28;20546;-66
2022/09/21 08:21:39;;;;;;;5.60;4.93;;;22.90;80.70;;;;;;4978746;28;20537;-64
2022/09/21 08:24:06;;;;;;;5.47;4.10;;;23.20;79.40;;;;;;4978761;28;20845;-65
2022/09/21 08:26:33;;;;;;;4.50;4.10;;;23.30;79.80;;;;;;4978721;28;20458;-65
2022/09/21 08:29:02;;;;;;;4.07;3.67;;;23.90;77.40;;;;;;4978718;28;20489;-65
2022/09/21 08:31:29;;;;;;;5.60;4.23;;;24.60;75.40;;;;;;4978497;28;20506;-65
2022/09/21 08:33:57;;;;;;;7.77;5.10;;;25.10;72.40;;;;;;4978114;28;20840;-65
2022/09/21 08:36:24;;;;;;;4.93;4.53;;;25.60;72.10;;;;;;4978549;28;20454;-64
2022/09/21 08:38:50;;;;;;;5.87;3.93;;;25.50;69.50;;;;;;4978451;28;20485;-64
2022/09/21 08:41:20;;;;;;;4.07;3.77;;;25.50;72.10;;;;;;4977830;28;21079;-65
2022/09/21 08:43:51;;;;;;;3.80;3.50;;;25.60;71.10;;;;;;4978042;28;20938;-65
2022/09/21 08:46:21;;;;;;;5.67;4.50;;;25.70;70.50;;;;;;4978045;28;20443;-66
2022/09/21 08:48:54;;;;;;;4.73;4.00;;;25.90;70.00;;;;;;4978019;28;20897;-65
2022/09/21 08:51:23;;;;;;;4.13;3.83;;;26.00;68.90;;;;;;4977899;28;20474;-63
2022/09/21 08:53:53;;;;;;;3.97;3.67;;;26.00;67.80;;;;;;4977855;28;20490;-63
2022/09/21 08:56:22;;;;;;;5.33;3.57;;;25.90;69.50;;;;;;4977413;28;20509;-63
2022/09/21 08:58:48;;;;;;;4.30;3.73;;;25.60;68.30;;;;;;4977248;28;20459;-63
2022/09/21 09:01:39;;;;;;;6.83;3.87;;;26.10;67.80;;;;;;4977350;28;20594;-63
2022/09/21 09:04:31;;;;;;;5.00;4.50;;;26.30;65.70;;;;;;4977614;28;20443;-63
2022/09/21 09:07:12;;;;;;;7.10;3.80;;;26.40;65.90;;;;;;4978077;28;20497;-63
2022/09/21 09:09:58;;;;;;;4.30;3.90;;;27.20;65.30;;;;;;4977806;28;20447;-63
2022/09/21 09:12:42;;;;;;;3.90;3.60;;;27.60;62.60;;;;;;4977905;28;20478;-63
2022/09/21 09:15:26;;;;;;;3.70;3.40;;;27.80;63.00;;;;;;4978034;28;20443;-63
2022/09/21 09:18:03;;;;;;;4.30;3.87;;;27.40;61.70;;;;;;4977999;28;20443;-63
2022/09/21 09:20:34;;;;;;;5.10;4.60;;;28.10;61.30;;;;;;4977577;28;20445;-63
2022/09/21 09:23:09;;;;;;;3.87;3.50;;;28.10;60.40;;;;;;4977669;28;20489;-63
2022/09/21 09:25:38;;;;;;;2.80;2.60;;;28.80;59.60;;;;;;4977847;28;20446;-63
2022/09/21 09:28:20;;;;;;;4.80;2.80;;;29.00;56.90;;;;;;4977702;28;20513;-63
2022/09/21 09:30:52;;;;;;;3.10;2.90;;;29.20;58.80;;;;;;4977757;28;20526;-64
2022/09/21 09:33:25;;;;;;;2.53;2.20;;;29.30;56.00;;;;;;4978316;28;20435;-64
2022/09/21 09:35:57;;;;;;;2.57;2.30;;;29.60;55.40;;;;;;4983492;28;20435;-63
2022/09/21 09:38:30;;;;;;;2.53;2.40;;;30.10;54.50;;;;;;4982747;28;20439;-63
2022/09/21 09:41:18;;;;;;;2.43;2.23;;;30.30;53.60;;;;;;4983729;28;20800;-64
2022/09/21 09:43:53;;;;;;;2.93;2.70;;;30.30;52.90;;;;;;4982083;28;20458;-64
2022/09/21 09:46:28;;;;;;;3.30;2.90;;;30.60;52.90;;;;;;4984973;28;20442;-64
2022/09/21 09:49:11;;;;;;;3.30;2.43;;;30.30;53.80;;;;;;4983193;28;20438;-64
2022/09/21 09:51:39;;;;;;;2.30;2.20;;;30.60;52.80;;;;;;4982465;28;20538;-63
2022/09/21 09:54:14;;;;;;;3.07;2.10;;;31.10;52.00;;;;;;4983660;28;20522;-64
2022/09/21 09:56:40;;;;;;;2.70;2.50;;;31.40;51.30;;;;;;4980691;28;20477;-63
2022/09/21 09:59:14;;;;;;;2.80;2.20;;;31.80;51.10;;;;;;4981764;28;20510;-64
2022/09/21 10:01:42;;;;;;;2.50;2.10;;;31.40;50.40;;;;;;4979730;28;20490;-63
2022/09/21 10:04:12;;;;;;;2.57;2.37;;;31.60;49.80;;;;;;4978007;28;20481;-64
2022/09/21 10:06:40;;;;;;;2.00;1.80;;;31.60;49.80;;;;;;4978280;28;20454;-64
2022/09/21 10:09:19;;;;;;;2.10;2.00;;;31.60;48.80;;;;;;4976988;28;20454;-64
2022/09/21 10:11:46;;;;;;;2.50;2.30;;;31.10;49.30;;;;;;4976513;28;20514;-64
2022/09/21 10:14:18;;;;;;;4.53;2.77;;;30.80;50.00;;;;;;4976557;28;20856;-63
2022/09/21 10:16:46;;;;;;;2.87;2.43;;;30.80;52.50;;;;;;4976162;28;20907;-65
2022/09/21 10:19:18;;;;;;;2.40;2.03;;;30.40;50.60;;;;;;4976350;28;20509;-64
2022/09/21 10:21:46;;;;;;;1.93;1.83;;;30.60;49.00;;;;;;4976399;28;20482;-63
2022/09/21 10:24:22;;;;;;;5.17;2.43;;;30.50;48.50;;;;;;4976572;28;20902;-64
2022/09/21 10:26:53;;;;;;;1.97;1.77;;;30.20;48.20;;;;;;4976352;28;20525;-63
2022/09/21 10:29:29;;;;;;;2.63;2.00;;;29.90;49.90;;;;;;4976599;28;20443;-63
2022/09/21 10:31:58;;;;;;;1.90;1.80;;;29.60;51.20;;;;;;4976285;28;20485;-64
2022/09/21 10:34:27;;;;;;;3.17;1.80;;;29.40;51.80;;;;;;4976582;28;20459;-65
2022/09/21 10:36:56;;;;;;;1.70;1.60;;;29.30;50.90;;;;;;4976275;28;21011;-65
2022/09/21 10:39:26;;;;;;;2.70;1.97;;;28.80;51.10;;;;;;4976918;28;20459;-63
2022/09/21 10:41:57;;;;;;;1.60;1.50;;;29.10;50.50;;;;;;4976694;28;20569;-66
2022/09/21 10:44:27;;;;;;;1.50;1.40;;;28.30;50.50;;;;;;4976809;28;20438;-63
2022/09/21 10:46:55;;;;;;;1.70;1.60;;;27.60;53.00;;;;;;4976525;28;20501;-63
2022/09/21 10:49:24;;;;;;;4.73;1.60;;;27.30;53.90;;;;;;4976432;28;20459;-64
2022/09/21 10:51:56;;;;;;;1.60;1.20;;;27.10;54.00;;;;;;4976328;28;20479;-64
2022/09/21 10:54:26;;;;;;;1.93;1.37;;;26.60;52.90;;;;;;4976691;28;20439;-63
2022/09/21 10:57:03;;;;;;;1.50;1.40;;;26.50;54.60;;;;;;4977336;28;20513;-64
2022/09/21 10:59:31;;;;;;;2.03;1.63;;;26.10;54.70;;;;;;4977372;28;20443;-64
2022/09/21 11:02:00;;;;;;;1.77;1.30;;;25.90;55.80;;;;;;4977216;28;20541;-66
2022/09/21 11:04:36;;;;;;;1.60;1.40;;;25.30;57.00;;;;;;4975742;28;20454;-65
2022/09/21 11:07:13;;;;;;;2.17;1.80;;;24.50;57.50;;;;;;4976195;28;20442;-65
2022/09/21 11:09:47;;;;;;;1.00;1.00;;;24.20;57.90;;;;;;4975688;28;20545;-64
2022/09/21 11:12:27;;;;;;;1.53;1.30;;;24.00;60.30;;;;;;4975779;28;20475;-65
2022/09/21 11:15:01;;;;;;;6.53;1.33;;;23.80;58.50;;;;;;4976043;28;20446;-63
2022/09/21 11:17:36;;;;;;;1.10;1.10;;;23.80;59.70;;;;;;4975765;28;20903;-62
2022/09/21 11:20:14;;;;;;;1.30;1.00;;;23.80;58.90;;;;;;4975061;28;20803;-63
2022/09/21 11:22:47;;;;;;;1.20;1.10;;;23.70;58.90;;;;;;4975968;28;20470;-64
2022/09/21 11:25:29;;;;;;;0.80;0.73;;;23.40;62.60;;;;;;4975772;28;20859;-66
2022/09/21 11:28:02;;;;;;;1.20;1.10;;;23.40;60.70;;;;;;4976484;28;20445;-65
2022/09/21 11:30:39;;;;;;;0.97;0.97;;;23.10;61.70;;;;;;4975832;28;20915;-66
2022/09/21 11:33:17;;;;;;;5.30;1.17;;;22.60;59.80;;;;;;4975708;28;20435;-64
2022/09/21 11:35:53;;;;;;;0.90;0.90;;;22.40;58.20;;;;;;4976768;28;20845;-63
2022/09/21 11:38:36;;;;;;;0.80;0.80;;;22.00;58.70;;;;;;4975614;28;20902;-62
2022/09/21 11:41:20;;;;;;;1.37;0.90;;;21.70;61.80;;;;;;4975556;28;20537;-63
2022/09/21 11:44:08;;;;;;;0.80;0.80;;;21.60;59.60;;;;;;4976033;28;20489;-64
2022/09/21 11:46:42;;;;;;;1.80;0.80;;;21.70;58.90;;;;;;4975929;28;20442;-63
2022/09/21 11:49:39;;;;;;;1.00;1.00;;;21.10;60.40;;;;;;4977312;28;20867;-64
2022/09/21 11:52:20;;;;;;;0.77;0.77;;;20.70;61.40;;;;;;4977666;28;20502;-65
2022/09/21 11:55:00;;;;;;;0.80;0.80;;;20.90;63.70;;;;;;4977616;28;20435;-63
2022/09/21 11:57:30;;;;;;;1.90;0.70;;;21.10;64.80;;;;;;4977061;28;20453;-63
2022/09/21 12:00:14;;;;;;;0.53;0.53;;;21.30;61.90;;;;;;4977692;28;20447;-63
2022/09/21 12:03:20;;;;;;;1.50;1.10;;;21.50;65.90;;;;;;4976304;28;20466;-64
2022/09/21 12:06:03;;;;;;;0.70;0.70;;;21.70;61.40;;;;;;4976758;28;20446;-62
2022/09/21 12:08:42;;;;;;;0.87;0.70;;;21.50;61.30;;;;;;4976246;28;20849;-62
2022/09/21 12:11:22;;;;;;;0.83;0.50;;;21.50;61.30;;;;;;4975248;28;20466;-63
2022/09/21 12:13:57;;;;;;;1.67;0.90;;;21.20;62.60;;;;;;4975766;28;20434;-63
2022/09/21 12:16:33;;;;;;;1.00;1.00;;;21.00;61.20;;;;;;4975994;28;20525;-63
2022/09/21 12:19:06;;;;;;;0.97;0.60;;;21.20;64.00;;;;;;4975470;28;20482;-63
2022/09/21 12:21:38;;;;;;;0.87;0.87;;;21.20;62.00;;;;;;4975406;28;20478;-63
2022/09/21 12:24:12;;;;;;;1.57;1.47;;;21.10;61.50;;;;;;4975654;28;20798;-63
2022/09/21 12:26:43;;;;;;;1.10;1.10;;;21.00;61.30;;;;;;4975997;28;20501;-62
2022/09/21 12:29:17;;;;;;;1.03;0.93;;;21.10;62.50;;;;;;4976365;28;20453;-62
2022/09/21 12:31:59;;;;;;;1.30;1.03;;;20.80;60.80;;;;;;4976493;28;20603;-62
2022/09/21 12:34:29;;;;;;;0.80;0.80;;;20.40;63.00;;;;;;4979813;28;20542;-63
2022/09/21 12:37:06;;;;;;;1.37;1.13;;;20.20;64.70;;;;;;4978891;28;20473;-65
2022/09/21 12:39:41;;;;;;;1.03;0.83;;;20.20;63.20;;;;;;4979302;28;20839;-63
2022/09/21 12:42:21;;;;;;;2.10;1.00;;;20.00;66.00;;;;;;4978454;28;20485;-63
2022/09/21 12:44:54;;;;;;;0.73;0.73;;;19.90;64.70;;;;;;4978703;28;20449;-64
2022/09/21 12:47:26;;;;;;;1.20;1.10;;;19.80;64.10;;;;;;4978168;28;20537;-63
2022/09/21 12:49:57;;;;;;;0.93;0.90;;;19.60;65.00;;;;;;4978315;28;20439;-65
2022/09/21 12:52:26;;;;;;;1.10;0.97;;;19.50;66.30;;;;;;4978817;28;20511;-64
2022/09/21 12:55:01;;;;;;;0.77;0.77;;;19.70;71.30;;;;;;4977955;28;20459;-63
2022/09/21 12:57:42;;;;;;;1.37;0.83;;;19.90;67.20;;;;;;4977986;28;20493;-63
2022/09/21 13:00:13;;;;;;;0.83;0.73;;;20.20;63.80;;;;;;4978539;28;20455;-63
2022/09/21 13:02:46;;;;;;;1.10;1.00;;;20.40;63.80;;;;;;4978505;28;20459;-63
2022/09/21 13:05:20;;;;;;;0.97;0.97;;;20.40;64.50;;;;;;4978130;28;20497;-63
2022/09/21 13:08:11;;;;;;;0.80;0.80;;;20.70;60.90;;;;;;4977950;28;20906;-63
2022/09/21 13:10:56;;;;;;;1.43;1.00;;;21.00;61.80;;;;;;4975199;28;20578;-63
2022/09/21 13:13:28;;;;;;;0.70;0.70;;;21.00;57.30;;;;;;4977695;28;20469;-63
2022/09/21 13:15:58;;;;;;;0.80;0.80;;;21.10;58.10;;;;;;4977931;28;20439;-63
2022/09/21 13:18:27;;;;;;;1.03;0.70;;;21.20;59.80;;;;;;4977550;28;20447;-64
2022/09/21 13:20:54;;;;;;;2.20;1.00;;;21.30;57.40;;;;;;4977875;28;20977;-64
2022/09/21 13:23:25;;;;;;;0.93;0.93;;;21.50;62.30;;;;;;4977699;28;20825;-62
2022/09/21 13:26:01;;;;;;;1.10;1.00;;;21.60;59.40;;;;;;4977650;28;20443;-64
2022/09/21 13:29:02;;;;;;;1.50;1.10;;;21.40;59.40;;;;;;4977747;28;20929;-64
2022/09/21 13:31:51;;;;;;;1.90;1.63;;;21.40;60.00;;;;;;4977663;28;20506;-65
2022/09/21 13:34:27;;;;;;;0.97;0.97;;;21.20;60.00;;;;;;4977268;28;20439;-64
2022/09/21 13:37:33;;;;;;;1.43;1.10;;;21.30;59.40;;;;;;4977089;28;20438;-65
2022/09/21 13:40:33;;;;;;;0.90;0.90;;;21.40;56.00;;;;;;4977250;28;20438;-66
2022/09/21 13:43:21;;;;;;;1.00;0.90;;;21.30;56.20;;;;;;4969669;28;20478;-66
2022/09/21 13:45:58;;;;;;;1.17;1.17;;;21.20;56.80;;;;;;4977985;28;20442;-65
2022/09/21 13:48:29;;;;;;;2.63;1.07;;;21.20;58.10;;;;;;4977201;28;20485;-65
2022/09/21 13:51:08;;;;;;;1.80;0.70;;;21.10;57.90;;;;;;4977086;28;21045;-65
2022/09/21 13:53:40;;;;;;;1.00;1.00;;;21.00;57.80;;;;;;4977179;28;20530;-65
2022/09/21 13:56:15;;;;;;;1.37;1.07;;;21.00;59.40;;;;;;4977375;28;20804;-67
2022/09/21 13:58:45;;;;;;;2.40;0.90;;;21.00;62.50;;;;;;4976951;28;20438;-67
2022/09/21 14:01:18;;;;;;;1.03;0.90;;;21.20;60.60;;;;;;4976563;28;20569;-66
2022/09/21 14:03:50;;;;;;;0.90;0.90;;;21.40;59.00;;;;;;4976932;28;20541;-65
2022/09/21 14:06:20;;;;;;;0.77;0.77;;;21.40;61.60;;;;;;4976878;28;20447;-66
2022/09/21 14:08:51;;;;;;;1.30;1.20;;;21.50;60.20;;;;;;4977085;28;20459;-65
2022/09/21 14:11:27;;;;;;;2.43;1.43;;;21.40;61.20;;;;;;4976716;28;20905;-66
2022/09/21 14:14:08;;;;;;;0.87;0.80;;;21.50;60.00;;;;;;4976995;28;20442;-65
2022/09/21 14:16:54;;;;;;;1.20;1.10;;;21.40;59.20;;;;;;4979155;28;20857;-65
2022/09/21 14:20:08;;;;;;;0.90;0.90;;;21.50;58.10;;;;;;4978283;28;20483;-63
2022/09/21 14:22:39;;;;;;;1.67;0.90;;;21.50;57.90;;;;;;4977033;28;20478;-65
2022/09/21 14:25:47;;;;;;;1.80;1.00;;;21.40;61.30;;;;;;4976916;28;20438;-65
2022/09/21 14:28:16;;;;;;;1.43;0.77;;;21.30;60.10;;;;;;4976433;28;20474;-65
2022/09/21 14:30:51;;;;;;;0.90;0.90;;;21.40;59.00;;;;;;4976265;28;20482;-63
2022/09/21 14:33:38;;;;;;;1.20;1.20;;;21.40;58.70;;;;;;4976943;28;20465;-63
2022/09/21 14:36:08;;;;;;;1.23;0.80;;;21.50;60.50;;;;;;4977037;28;20482;-65
2022/09/21 14:38:48;;;;;;;1.60;1.20;;;21.40;57.10;;;;;;4976734;28;20438;-64
2022/09/21 14:41:19;;;;;;;2.30;1.07;;;21.30;54.30;;;;;;4976576;28;20521;-67
2022/09/21 14:43:52;;;;;;;0.90;0.90;;;21.10;57.80;;;;;;4976517;28;20558;-65
2022/09/21 14:46:31;;;;;;;1.00;1.00;;;20.80;57.70;;;;;;4975910;28;20894;-66
2022/09/21 14:49:12;;;;;;;2.10;1.00;;;20.80;54.90;;;;;;4976554;28;20466;-66
2022/09/21 14:51:45;;;;;;;1.20;1.17;;;20.60;57.30;;;;;;4976051;28;20470;-66
2022/09/21 14:54:33;;;;;;;0.90;0.90;;;20.60;57.50;;;;;;4975991;28;20435;-66
2022/09/21 14:57:33;;;;;;;0.83;0.83;;;20.60;58.50;;;;;;4975486;28;20915;-65
2022/09/21 15:00:14;;;;;;;1.13;1.07;;;20.60;57.90;;;;;;4976013;28;20811;-67
2022/09/21 15:02:44;;;;;;;1.30;0.77;;;20.70;58.60;;;;;;4975694;28;20486;-64
2022/09/21 15:05:19;;;;;;;1.20;1.10;;;20.70;57.30;;;;;;4976214;28;20450;-63
2022/09/21 15:10:56;;;;;;;0.90;0.90;;;20.50;56.90;;;;;;4976215;28;20481;-64
2022/09/21 15:13:42;;;;;;;1.00;0.80;;;20.50;57.40;;;;;;4975785;28;20467;-65
2022/09/21 15:16:36;;;;;;;0.80;0.80;;;20.40;56.20;;;;;;4969130;28;20447;-65
2022/09/21 15:19:15;;;;;;;0.83;0.83;;;20.40;56.30;;;;;;4974111;28;20934;-63
2022/09/21 15:21:43;;;;;;;2.83;1.13;;;20.40;55.80;;;;;;4975682;28;20566;-63
2022/09/21 15:24:19;;;;;;;1.53;1.20;;;20.30;56.00;;;;;;4975497;28;20518;-65
2022/09/21 15:26:50;;;;;;;1.10;1.10;;;20.20;55.50;;;;;;4975975;28;20534;-65
2022/09/21 15:29:24;;;;;;;1.50;1.30;;;20.10;56.20;;;;;;4975480;28;20534;-65
2022/09/21 15:31:51;;;;;;;1.03;1.03;;;20.00;56.20;;;;;;4975635;28;20569;-65
2022/09/21 15:34:18;;;;;;;0.90;0.90;;;19.80;56.10;;;;;;4975654;28;20451;-65
2022/09/21 15:36:47;;;;;;;1.20;1.20;;;19.60;56.60;;;;;;4975991;28;20535;-63
2022/09/21 15:39:27;;;;;;;1.30;1.20;;;19.50;57.40;;;;;;4975403;28;20454;-64
2022/09/21 15:42:16;;;;;;;1.27;1.17;;;19.40;58.10;;;;;;4975277;28;20553;-65
2022/09/21 15:44:47;;;;;;;1.10;1.10;;;19.30;58.10;;;;;;4975939;28;20802;-61
2022/09/21 15:47:16;;;;;;;1.37;1.23;;;19.20;59.70;;;;;;4975393;28;20467;-64
2022/09/21 15:49:43;;;;;;;1.33;1.23;;;19.10;60.30;;;;;;4975280;28;20506;-62
2022/09/21 15:52:13;;;;;;;1.13;1.13;;;18.90;59.90;;;;;;4975208;28;20565;-64
2022/09/21 15:54:43;;;;;;;1.40;1.30;;;18.70;60.60;;;;;;4975229;28;20435;-63
2022/09/21 15:57:31;;;;;;;1.40;1.30;;;18.60;61.70;;;;;;4975211;28;20458;-65
2022/09/21 15:59:59;;;;;;;1.30;1.20;;;18.40;62.50;;;;;;4978008;28;20501;-66
2022/09/21 16:02:30;;;;;;;1.10;1.10;;;18.30;65.70;;;;;;4977188;28;20486;-65
2022/09/21 16:04:56;;;;;;;2.67;1.30;;;18.30;63.60;;;;;;4977008;28;20462;-65
2022/09/21 16:07:31;;;;;;;1.10;1.00;;;18.10;64.00;;;;;;4979423;28;20454;-65
2022/09/21 16:09:58;;;;;;;1.27;1.17;;;18.00;64.70;;;;;;4979430;28;20506;-65
2022/09/21 16:12:42;;;;;;;1.63;1.30;;;17.80;66.00;;;;;;4979301;28;20503;-65
2022/09/21 16:15:16;;;;;;;1.40;1.20;;;17.70;65.10;;;;;;4979282;28;21017;-65
2022/09/21 16:18:00;;;;;;;2.97;0.90;;;17.70;65.30;;;;;;4979092;28;20438;-65
2022/09/21 16:20:39;;;;;;;1.80;1.00;;;17.60;66.10;;;;;;4977606;28;20472;-62
2022/09/21 16:23:13;;;;;;;1.13;1.03;;;17.50;66.40;;;;;;4979034;28;20462;-63
2022/09/21 16:25:41;;;;;;;1.17;0.90;;;17.40;67.40;;;;;;4978846;28;20865;-62
2022/09/21 16:28:34;;;;;;;1.00;1.00;;;17.40;67.80;;;;;;4978680;28;20458;-62
2022/09/21 16:31:24;;;;;;;2.23;1.13;;;17.30;69.10;;;;;;4978371;28;20474;-62
2022/09/21 16:34:04;;;;;;;0.93;0.93;;;17.30;69.30;;;;;;4978333;28;20457;-62
2022/09/21 16:36:44;;;;;;;1.50;1.50;;;17.20;69.40;;;;;;4978463;28;20906;-66
2022/09/21 16:39:13;;;;;;;1.30;1.20;;;17.10;74.00;;;;;;4978461;28;20497;-65
2022/09/21 16:41:46;;;;;;;1.40;1.30;;;17.10;75.60;;;;;;4978640;28;20478;-63
2022/09/21 16:44:19;;;;;;;1.00;1.00;;;17.10;70.20;;;;;;4978314;28;20505;-63
2022/09/21 16:46:47;;;;;;;1.63;1.40;;;17.00;69.70;;;;;;4978504;28;20918;-63
2022/09/21 16:49:17;;;;;;;1.03;1.03;;;17.00;69.40;;;;;;4977943;28;20942;-62
2022/09/21 16:51:45;;;;;;;1.37;1.10;;;16.90;70.60;;;;;;4978556;28;20482;-64
2022/09/21 16:54:12;;;;;;;2.37;1.40;;;16.90;72.20;;;;;;4978118;28;20938;-62
2022/09/21 16:56:39;;;;;;;1.03;1.03;;;16.80;72.00;;;;;;4978157;28;20517;-64
2022/09/21 16:59:15;;;;;;;1.37;1.37;;;16.70;71.90;;;;;;4979241;28;20578;-64
2022/09/21 17:01:43;;;;;;;2.00;1.90;;;16.70;72.60;;;;;;4978316;28;20517;-61
2022/09/21 17:04:12;;;;;;;2.00;1.47;;;16.60;72.60;;;;;;4978613;28;20513;-64
2022/09/21 17:06:39;;;;;;;1.13;1.10;;;16.50;72.60;;;;;;4978635;28;20549;-65
2022/09/21 17:09:17;;;;;;;1.33;1.20;;;16.40;72.90;;;;;;4979192;28;20545;-65
2022/09/21 17:11:45;;;;;;;2.57;1.70;;;16.30;74.00;;;;;;4979316;28;20478;-65
2022/09/21 17:14:14;;;;;;;2.07;1.97;;;16.30;74.70;;;;;;4977837;28;20454;-66
2022/09/21 17:16:47;;;;;;;2.43;1.90;;;16.20;75.00;;;;;;4977819;28;20454;-66
2022/09/21 17:19:14;;;;;;;3.80;2.07;;;16.10;75.60;;;;;;4977313;28;20443;-65
2022/09/21 17:21:41;;;;;;;8.47;1.77;;;16.00;76.80;;;;;;4978138;28;21036;-65